This is the latest recevied weather packets stored in our database for station/object SR5NLK-1. If no packets are shown the sender has not sent any weather packets the latest 10 day(s).
| Time | Temp. | Humidity | Pressure | Rain* | Wind** | Luminosity | Snow |
|---|---|---|---|---|---|---|---|
| 1787653804 | 23.89° C | 49% | 1041.5 hPa | 0 mm | - | - | - |
| 1787653503 | 23.89° C | 50% | 1078.4 hPa | 0 mm | - | - | - |
| 1787653204 | 23.33° C | 50% | 1081.5 hPa | 0 mm | - | - | - |
| 1787652988 | 23.33° C | 51% | 1043 hPa | 0 mm | - | - | - |
| 1787652904 | 23.33° C | 49% | 1081.5 hPa | 0 mm | - | - | - |
| 1787652723 | 23.33° C | 50% | 991.6 hPa | 0 mm | - | - | - |
| 1787652636 | 23.89° C | 49% | 1084.7 hPa | 0 mm | - | - | - |
| 1787652604 | 23.89° C | 49% | 1084.7 hPa | 0 mm | - | - | - |
| 1787652304 | 23.89° C | 49% | 1069 hPa | 0 mm | - | - | - |
| 1787652090 | 24.44° C | 49% | 1098.8 hPa | 0 mm | - | - | - |
| 1787652004 | 23.89° C | 50% | 1036.6 hPa | 0 mm | - | - | - |
| 1787651738 | 23.89° C | 48% | 1036.5 hPa | 0 mm | - | - | - |
| 1787651704 | 23.33° C | 50% | 1033.4 hPa | 0 mm | - | - | - |
| 1787651523 | 22.78° C | 51% | 1094 hPa | 0 mm | - | - | - |
| 1787651404 | 22.78° C | 51% | 1075.2 hPa | 0 mm | - | - | - |
| 1787651104 | 22.22° C | 51% | 1098.8 hPa | 0 mm | - | - | - |
| 1787650865 | 27.78° C | 44% | 1045.9 hPa | 0 mm | - | - | - |
| 1787650804 | 22.78° C | 51% | 1049.1 hPa | 0 mm | - | - | - |
| 1787650564 | 27.78° C | 45% | 1081.5 hPa | 0 mm | - | - | - |
| 1787650504 | 23.33° C | 50% | 1049.1 hPa | 0 mm | - | - | - |
| 1787650204 | 23.33° C | 51% | 994.7 hPa | 0 mm | - | - | - |
| 1787650194 | 27.78° C | 45% | 1094.1 hPa | 0 mm | - | - | - |
| 1787650027 | 22.78° C | 51% | 1039.7 hPa | 0 mm | - | - | - |
| 1787650023 | 22.22° C | 52% | 1072.1 hPa | 0 mm | - | - | - |
| 1787649904 | 22.78° C | 51% | 1039.7 hPa | 0 mm | - | - | - |
* Rain latest hour (hover to see other rain measurements)
** Current wind speed in m/s (hover to see current wind gust speed)